createdAt,value
2023-03-28T00:00:22.291Z,1025.92
2023-03-28T00:01:24.957Z,1025.91
2023-03-28T00:02:27.799Z,1025.96
2023-03-28T00:04:02.630Z,1025.95
2023-03-28T00:05:06.321Z,1025.99
2023-03-28T00:06:10.494Z,1025.96
2023-03-28T00:07:45.761Z,1025.93
2023-03-28T00:08:48.683Z,1025.98
2023-03-28T00:09:51.508Z,1025.93
2023-03-28T00:11:26.376Z,1025.98
2023-03-28T00:12:29.342Z,1025.95
2023-03-28T00:13:32.094Z,1025.94
2023-03-28T00:15:06.590Z,1025.91
2023-03-28T00:16:10.064Z,1025.90
2023-03-28T00:17:13.220Z,1025.91
2023-03-28T00:18:47.795Z,1025.91
2023-03-28T00:19:50.539Z,1025.93
2023-03-28T00:20:54.860Z,1025.91
2023-03-28T00:22:29.439Z,1025.92
2023-03-28T00:23:32.341Z,1025.94
2023-03-28T00:24:35.201Z,1025.93
2023-03-28T00:26:10.250Z,1025.93
2023-03-28T00:27:13.149Z,1025.91
2023-03-28T00:28:16.014Z,1025.93
2023-03-28T00:29:50.569Z,1025.95
2023-03-28T00:30:53.453Z,1025.98
2023-03-28T00:31:56.711Z,1025.98
2023-03-28T00:33:31.230Z,1026.00
2023-03-28T00:34:34.085Z,1026.01
2023-03-28T00:35:36.976Z,1026.01
2023-03-28T00:37:11.678Z,1026.00
2023-03-28T00:38:14.646Z,1026.00
2023-03-28T00:39:17.476Z,1026.02
2023-03-28T00:40:52.205Z,1025.99
2023-03-28T00:41:55.312Z,1025.96
2023-03-28T00:42:58.212Z,1025.99
2023-03-28T00:44:32.970Z,1025.97
2023-03-28T00:45:35.768Z,1025.96
2023-03-28T00:46:55.828Z,1025.98
2023-03-28T00:48:30.691Z,1025.93
2023-03-28T00:49:33.449Z,1025.94
2023-03-28T00:50:36.241Z,1025.96
2023-03-28T00:52:10.751Z,1025.93
2023-03-28T00:53:13.593Z,1025.87
2023-03-28T00:54:16.433Z,1025.86
2023-03-28T00:55:50.958Z,1025.91
2023-03-28T00:56:54.154Z,1025.89
2023-03-28T00:57:57.319Z,1025.93
2023-03-28T00:59:32.082Z,1025.98
2023-03-28T01:00:22.922Z,1025.98
2023-03-28T01:01:25.934Z,1025.97
2023-03-28T01:02:29.190Z,1025.95
2023-03-28T01:04:04.361Z,1025.97
2023-03-28T01:05:07.327Z,1026.02
2023-03-28T01:06:10.524Z,1026.01
2023-03-28T01:07:45.105Z,1026.00
2023-03-28T01:08:48.202Z,1025.97
2023-03-28T01:09:50.999Z,1026.00
2023-03-28T01:11:25.680Z,1026.02
2023-03-28T01:12:28.692Z,1026.01
2023-03-28T01:13:32.091Z,1026.00
2023-03-28T01:15:07.539Z,1026.00
2023-03-28T01:16:11.358Z,1025.99
2023-03-28T01:17:14.323Z,1025.99
2023-03-28T01:18:49.599Z,1025.98
2023-03-28T01:19:52.481Z,1025.96
2023-03-28T01:20:55.413Z,1025.94
2023-03-28T01:22:30.121Z,1025.93
2023-03-28T01:23:48.262Z,1025.95
2023-03-28T01:25:08.357Z,1025.89
2023-03-28T01:26:43.024Z,1025.89
2023-03-28T01:27:45.850Z,1025.91
2023-03-28T01:28:48.594Z,1025.94
2023-03-28T01:30:23.289Z,1025.89
2023-03-28T01:31:26.397Z,1025.85
2023-03-28T01:32:29.719Z,1025.89
2023-03-28T01:34:04.608Z,1025.91
2023-03-28T01:35:07.463Z,1025.85
2023-03-28T01:36:11.015Z,1025.89
2023-03-28T01:38:04.382Z,1026.04
2023-03-28T01:39:07.122Z,1026.12
2023-03-28T01:40:09.994Z,1026.08
2023-03-28T01:41:44.475Z,1025.85
2023-03-28T01:42:47.255Z,1025.88
2023-03-28T01:43:50.043Z,1025.89
2023-03-28T01:45:24.516Z,1026.00
2023-03-28T01:46:27.660Z,1026.02
2023-03-28T01:47:30.689Z,1026.06
2023-03-28T01:49:05.584Z,1026.03
2023-03-28T01:50:08.587Z,1025.94
2023-03-28T01:51:11.478Z,1025.92
2023-03-28T01:52:46.201Z,1025.90
2023-03-28T01:53:49.083Z,1025.88
2023-03-28T01:54:51.857Z,1025.86
2023-03-28T01:56:26.635Z,1025.91
2023-03-28T01:57:30.198Z,1025.95
2023-03-28T01:58:33.348Z,1025.97
2023-03-28T02:00:22.649Z,1025.96
2023-03-28T02:01:25.633Z,1025.94
2023-03-28T02:02:29.153Z,1025.92
2023-03-28T02:04:04.340Z,1025.89
2023-03-28T02:05:26.902Z,1025.91
2023-03-28T02:06:29.788Z,1025.91
2023-03-28T02:08:04.519Z,1025.97
2023-03-28T02:09:07.399Z,1025.96
2023-03-28T02:10:10.689Z,1025.92
2023-03-28T02:11:45.183Z,1025.88
2023-03-28T02:12:48.076Z,1025.87
2023-03-28T02:13:50.874Z,1025.87
2023-03-28T02:15:25.445Z,1025.87
2023-03-28T02:16:28.327Z,1025.87
2023-03-28T02:17:31.801Z,1025.87
2023-03-28T02:19:06.585Z,1025.87
2023-03-28T02:20:09.444Z,1025.90
2023-03-28T02:21:12.349Z,1025.88
2023-03-28T02:22:46.994Z,1025.90
2023-03-28T02:23:49.860Z,1025.89
2023-03-28T02:24:52.651Z,1025.89
2023-03-28T02:26:27.383Z,1025.88
2023-03-28T02:27:34.096Z,1025.86
2023-03-28T02:28:36.930Z,1025.86
2023-03-28T02:30:11.411Z,1025.91
2023-03-28T02:31:14.137Z,1025.90
2023-03-28T02:32:17.124Z,1025.87
2023-03-28T02:33:52.357Z,1025.85
2023-03-28T02:34:55.066Z,1025.86
2023-03-28T02:35:58.153Z,1025.85
2023-03-28T02:37:33.012Z,1025.84
2023-03-28T02:38:35.898Z,1025.82
2023-03-28T02:39:38.746Z,1025.79
2023-03-28T02:41:13.654Z,1025.77
2023-03-28T02:42:16.541Z,1025.75
2023-03-28T02:43:19.443Z,1025.77
2023-03-28T02:44:54.144Z,1025.74
2023-03-28T02:45:57.256Z,1025.78
2023-03-28T02:47:01.504Z,1025.79
2023-03-28T02:48:35.897Z,1025.73
2023-03-28T02:49:55.802Z,1025.73
2023-03-28T02:50:58.549Z,1025.72
2023-03-28T02:52:33.097Z,1025.69
2023-03-28T02:53:35.856Z,1025.77
2023-03-28T02:54:38.749Z,1025.78
2023-03-28T02:56:13.798Z,1025.78
2023-03-28T02:57:17.039Z,1025.73
2023-03-28T02:58:20.029Z,1025.71
2023-03-28T02:59:54.712Z,1025.71
2023-03-28T03:01:26.882Z,1025.71
2023-03-28T03:02:29.746Z,1025.76
2023-03-28T03:04:06.776Z,1025.77
2023-03-28T03:05:09.832Z,1025.75
2023-03-28T03:06:13.071Z,1025.77
2023-03-28T03:07:47.601Z,1025.74
2023-03-28T03:08:50.374Z,1025.76
2023-03-28T03:09:54.945Z,1025.72
2023-03-28T03:11:29.774Z,1025.71
2023-03-28T03:12:32.737Z,1025.74
2023-03-28T03:13:35.636Z,1025.75
2023-03-28T03:15:10.341Z,1025.73
2023-03-28T03:16:13.953Z,1025.77
2023-03-28T03:17:17.193Z,1025.73
2023-03-28T03:18:51.867Z,1025.76
2023-03-28T03:19:54.711Z,1025.75
2023-03-28T03:20:57.675Z,1025.72
2023-03-28T03:22:32.599Z,1025.75
2023-03-28T03:23:35.474Z,1025.74
2023-03-28T03:24:38.269Z,1025.72
2023-03-28T03:26:13.273Z,1025.76
2023-03-28T03:27:16.204Z,1025.72
2023-03-28T03:28:19.322Z,1025.75
2023-03-28T03:29:54.225Z,1025.78
2023-03-28T03:30:57.104Z,1025.76
2023-03-28T03:32:00.267Z,1025.75
2023-03-28T03:33:38.037Z,1025.78
2023-03-28T03:34:41.001Z,1025.78
2023-03-28T03:35:44.249Z,1025.80
2023-03-28T03:37:19.247Z,1025.84
2023-03-28T03:38:22.009Z,1025.83
2023-03-28T03:39:24.814Z,1025.83
2023-03-28T03:40:59.377Z,1025.82
2023-03-28T03:42:02.130Z,1025.84
2023-03-28T03:43:04.947Z,1025.84
2023-03-28T03:44:39.617Z,1025.84
2023-03-28T03:45:42.526Z,1025.83
2023-03-28T03:46:46.251Z,1025.84
2023-03-28T03:48:20.859Z,1025.82
2023-03-28T03:49:35.860Z,1025.83
2023-03-28T03:50:38.702Z,1025.86
2023-03-28T03:52:13.451Z,1025.88
2023-03-28T03:53:16.380Z,1025.88
2023-03-28T03:54:19.317Z,1025.89
2023-03-28T03:55:55.970Z,1025.90
2023-03-28T03:56:59.212Z,1025.92
2023-03-28T03:58:02.169Z,1025.95
2023-03-28T03:59:38.767Z,1025.95
2023-03-28T04:01:26.180Z,1025.91
2023-03-28T04:02:29.590Z,1025.91
2023-03-28T04:04:11.895Z,1025.96
2023-03-28T04:05:52.929Z,1025.93
2023-03-28T04:06:56.751Z,1025.95
2023-03-28T04:07:59.980Z,1025.93
2023-03-28T04:09:35.382Z,1025.96
2023-03-28T04:10:39.034Z,1025.95
2023-03-28T04:11:45.060Z,1025.96
2023-03-28T04:13:20.211Z,1025.95
2023-03-28T04:14:23.266Z,1025.96
2023-03-28T04:15:26.477Z,1025.96
2023-03-28T04:17:01.556Z,1025.94
2023-03-28T04:18:07.551Z,1025.94
2023-03-28T04:19:12.501Z,1025.97
2023-03-28T04:20:47.850Z,1025.95
2023-03-28T04:21:50.961Z,1025.97
2023-03-28T04:22:57.575Z,1026.00
2023-03-28T04:24:32.727Z,1026.01
2023-03-28T04:25:35.952Z,1026.00
2023-03-28T04:26:39.211Z,1026.01
2023-03-28T04:28:14.220Z,1025.94
2023-03-28T04:29:17.302Z,1025.98
2023-03-28T04:30:20.445Z,1025.98
2023-03-28T04:31:56.062Z,1025.93
2023-03-28T04:32:59.535Z,1025.96
2023-03-28T04:34:02.780Z,1025.92
2023-03-28T04:35:38.072Z,1025.96
2023-03-28T04:36:41.478Z,1025.96
2023-03-28T04:37:44.430Z,1025.98
2023-03-28T04:39:19.289Z,1025.99
2023-03-28T04:40:22.766Z,1025.98
2023-03-28T04:41:26.390Z,1026.03
2023-03-28T04:43:01.791Z,1026.01
2023-03-28T04:44:04.876Z,1026.00
2023-03-28T04:45:07.889Z,1026.02
2023-03-28T04:46:46.343Z,1026.04
2023-03-28T04:47:49.481Z,1026.05
2023-03-28T04:48:56.769Z,1026.01
2023-03-28T04:50:33.904Z,1026.06
2023-03-28T04:51:38.342Z,1026.03
2023-03-28T04:52:41.420Z,1026.07
2023-03-28T04:54:16.171Z,1026.05
2023-03-28T04:55:19.151Z,1026.06
2023-03-28T04:56:22.197Z,1026.08
2023-03-28T04:57:57.285Z,1026.07
2023-03-28T04:59:00.149Z,1025.98
2023-03-28T05:00:23.633Z,1026.05
2023-03-28T05:01:26.588Z,1026.09
2023-03-28T05:02:30.096Z,1026.08
2023-03-28T05:04:05.517Z,1026.06
2023-03-28T05:05:08.573Z,1026.08
2023-03-28T05:06:11.824Z,1026.08
2023-03-28T05:07:46.535Z,1026.08
2023-03-28T05:08:49.666Z,1026.04
2023-03-28T05:09:52.969Z,1026.08
2023-03-28T05:11:30.924Z,1026.06
2023-03-28T05:12:34.113Z,1026.12
2023-03-28T05:13:37.049Z,1026.10
2023-03-28T05:15:11.906Z,1026.10
2023-03-28T05:16:25.943Z,1026.11
2023-03-28T05:17:29.183Z,1026.11
2023-03-28T05:19:04.755Z,1026.10
2023-03-28T05:20:07.553Z,1026.14
2023-03-28T05:21:10.619Z,1026.16
2023-03-28T05:22:45.147Z,1026.17
2023-03-28T05:23:51.491Z,1026.14
2023-03-28T05:24:55.064Z,1026.16
2023-03-28T05:26:30.184Z,1026.21
2023-03-28T05:27:33.055Z,1026.22
2023-03-28T05:28:36.362Z,1026.24
2023-03-28T05:30:11.561Z,1026.22
2023-03-28T05:31:14.577Z,1026.24
2023-03-28T05:32:17.733Z,1026.20
2023-03-28T05:33:54.726Z,1026.21
2023-03-28T05:34:57.602Z,1026.25
2023-03-28T05:36:00.570Z,1026.29
2023-03-28T05:37:42.522Z,1026.27
2023-03-28T05:38:46.672Z,1026.27
2023-03-28T05:39:49.475Z,1026.27
2023-03-28T05:41:24.237Z,1026.27
2023-03-28T05:42:27.266Z,1026.27
2023-03-28T05:43:30.340Z,1026.29
2023-03-28T05:45:05.117Z,1026.27
2023-03-28T05:46:08.262Z,1026.28
2023-03-28T05:47:11.931Z,1026.33
2023-03-28T05:48:49.572Z,1026.30
2023-03-28T05:49:54.913Z,1026.36
2023-03-28T05:50:58.395Z,1026.38
2023-03-28T05:52:33.278Z,1026.37
2023-03-28T05:53:36.144Z,1026.38
2023-03-28T05:54:39.090Z,1026.39
2023-03-28T05:56:22.178Z,1026.37
2023-03-28T05:57:25.340Z,1026.35
2023-03-28T05:58:28.250Z,1026.36
2023-03-28T06:00:23.271Z,1026.38
2023-03-28T06:01:26.369Z,1026.39
2023-03-28T06:02:29.579Z,1026.39
2023-03-28T06:04:05.120Z,1026.40
2023-03-28T06:05:08.789Z,1026.39
2023-03-28T06:06:12.164Z,1026.43
2023-03-28T06:07:54.610Z,1026.45
2023-03-28T06:08:57.497Z,1026.43
2023-03-28T06:10:00.498Z,1026.49
2023-03-28T06:11:35.241Z,1026.43
2023-03-28T06:12:38.161Z,1026.48
2023-03-28T06:13:41.082Z,1026.43
2023-03-28T06:15:15.969Z,1026.43
2023-03-28T06:16:18.910Z,1026.44
2023-03-28T06:17:33.977Z,1026.44
2023-03-28T06:19:26.037Z,1026.47
2023-03-28T06:20:29.155Z,1026.48
2023-03-28T06:21:32.076Z,1026.46
2023-03-28T06:23:06.936Z,1026.48
2023-03-28T06:24:09.872Z,1026.49
2023-03-28T06:25:12.760Z,1026.50
2023-03-28T06:26:47.367Z,1026.48
2023-03-28T06:27:50.416Z,1026.44
2023-03-28T06:28:53.243Z,1026.46
2023-03-28T06:30:28.062Z,1026.45
2023-03-28T06:31:31.404Z,1026.47
2023-03-28T06:32:34.678Z,1026.48
2023-03-28T06:34:09.925Z,1026.45
2023-03-28T06:35:13.051Z,1026.45
2023-03-28T06:36:16.373Z,1026.45
2023-03-28T06:37:51.367Z,1026.45
2023-03-28T06:38:54.803Z,1026.40
2023-03-28T06:39:58.025Z,1026.42
2023-03-28T06:41:33.037Z,1026.46
2023-03-28T06:42:35.952Z,1026.48
2023-03-28T06:43:38.946Z,1026.45
2023-03-28T06:45:13.553Z,1026.47
2023-03-28T06:46:16.591Z,1026.42
2023-03-28T06:47:19.799Z,1026.41
2023-03-28T06:48:55.314Z,1026.44
2023-03-28T06:49:58.366Z,1026.47
2023-03-28T06:51:01.810Z,1026.47
2023-03-28T06:52:37.035Z,1026.51
2023-03-28T06:53:40.122Z,1026.52
2023-03-28T06:54:43.188Z,1026.53
2023-03-28T06:56:18.214Z,1026.57
2023-03-28T06:57:21.715Z,1026.59
2023-03-28T06:58:24.625Z,1026.56
2023-03-28T06:59:59.268Z,1026.48
2023-03-28T07:00:23.917Z,1026.48
2023-03-28T07:01:26.943Z,1026.48
2023-03-28T07:02:30.566Z,1026.47
2023-03-28T07:04:06.721Z,1026.45
2023-03-28T07:05:09.693Z,1026.45
2023-03-28T07:06:12.996Z,1026.47
2023-03-28T07:07:48.292Z,1026.46
2023-03-28T07:08:51.370Z,1026.45
2023-03-28T07:09:58.118Z,1026.44
2023-03-28T07:11:33.061Z,1026.44
2023-03-28T07:12:36.125Z,1026.43
2023-03-28T07:13:39.258Z,1026.44
2023-03-28T07:15:13.983Z,1026.40
2023-03-28T07:16:17.222Z,1026.40
2023-03-28T07:17:20.460Z,1026.43
2023-03-28T07:18:55.240Z,1026.44
2023-03-28T07:19:58.210Z,1026.49
2023-03-28T07:21:16.096Z,1026.49
2023-03-28T07:22:51.016Z,1026.52
2023-03-28T07:23:53.916Z,1026.53
2023-03-28T07:24:57.193Z,1026.54
2023-03-28T07:26:32.107Z,1026.51
2023-03-28T07:27:36.310Z,1026.54
2023-03-28T07:28:39.419Z,1026.54
2023-03-28T07:30:14.253Z,1026.49
2023-03-28T07:31:17.165Z,1026.50
2023-03-28T07:32:20.098Z,1026.51
2023-03-28T07:34:36.860Z,1026.49
2023-03-28T07:35:39.976Z,1026.50
2023-03-28T07:36:43.203Z,1026.53
2023-03-28T07:38:17.836Z,1026.50
2023-03-28T07:39:20.834Z,1026.51
2023-03-28T07:40:23.892Z,1026.48
2023-03-28T07:41:58.748Z,1026.51
2023-03-28T07:43:01.742Z,1026.50
2023-03-28T07:44:04.796Z,1026.51
2023-03-28T07:45:39.890Z,1026.55
2023-03-28T07:46:43.165Z,1026.52
2023-03-28T07:47:46.503Z,1026.57
2023-03-28T07:49:21.790Z,1026.58
2023-03-28T07:50:25.061Z,1026.56
2023-03-28T07:51:28.370Z,1026.52
2023-03-28T07:53:03.591Z,1026.55
2023-03-28T07:54:06.751Z,1026.51
2023-03-28T07:55:10.002Z,1026.57
2023-03-28T07:56:46.765Z,1026.53
2023-03-28T07:57:49.977Z,1026.55
2023-03-28T07:58:52.952Z,1026.56
2023-03-28T08:00:23.798Z,1026.56
2023-03-28T08:01:27.118Z,1026.53
2023-03-28T08:02:30.262Z,1026.56
2023-03-28T08:04:09.548Z,1026.56
2023-03-28T08:05:12.730Z,1026.53
2023-03-28T08:06:37.861Z,1026.55
2023-03-28T08:08:12.861Z,1026.62
2023-03-28T08:09:16.194Z,1026.59
2023-03-28T08:10:19.039Z,1026.64
2023-03-28T08:11:54.015Z,1026.63
2023-03-28T08:12:56.954Z,1026.64
2023-03-28T08:13:59.991Z,1026.66
2023-03-28T08:15:35.180Z,1026.66
2023-03-28T08:16:41.541Z,1026.66
2023-03-28T08:17:44.630Z,1026.66
2023-03-28T08:19:23.328Z,1026.68
2023-03-28T08:20:26.321Z,1026.66
2023-03-28T08:21:32.423Z,1026.63
2023-03-28T08:23:07.363Z,1026.58
2023-03-28T08:24:10.223Z,1026.59
2023-03-28T08:25:30.828Z,1026.58
2023-03-28T08:27:05.774Z,1026.55
2023-03-28T08:28:08.996Z,1026.52
2023-03-28T08:29:11.907Z,1026.55
2023-03-28T08:30:46.693Z,1026.48
2023-03-28T08:31:50.589Z,1026.49
2023-03-28T08:32:54.953Z,1026.48
2023-03-28T08:34:30.364Z,1026.45
2023-03-28T08:35:33.815Z,1026.44
2023-03-28T08:36:36.942Z,1026.40
2023-03-28T08:38:15.381Z,1026.39
2023-03-28T08:39:18.334Z,1026.40
2023-03-28T08:40:21.319Z,1026.39
2023-03-28T08:41:56.060Z,1026.36
2023-03-28T08:42:59.223Z,1026.38
2023-03-28T08:44:02.007Z,1026.38
2023-03-28T08:45:36.845Z,1026.41
2023-03-28T08:46:39.906Z,1026.42
2023-03-28T08:47:43.253Z,1026.41
2023-03-28T08:49:18.406Z,1026.43
2023-03-28T08:50:24.609Z,1026.39
2023-03-28T08:51:27.532Z,1026.41
2023-03-28T08:53:02.303Z,1026.46
2023-03-28T08:54:05.208Z,1026.43
2023-03-28T08:55:08.264Z,1026.43
2023-03-28T08:56:43.432Z,1026.45
2023-03-28T08:57:46.601Z,1026.43
2023-03-28T08:58:49.564Z,1026.42
2023-03-28T09:00:22.930Z,1026.43
2023-03-28T09:01:26.071Z,1026.39
2023-03-28T09:02:29.874Z,1026.41
2023-03-28T09:04:10.113Z,1026.41
2023-03-28T09:05:33.643Z,1026.39
2023-03-28T09:06:36.748Z,1026.36
2023-03-28T09:08:11.948Z,1026.34
2023-03-28T09:09:17.502Z,1026.40
2023-03-28T09:10:20.677Z,1026.32
2023-03-28T09:11:55.666Z,1026.34
2023-03-28T09:12:58.705Z,1026.36
2023-03-28T09:14:02.770Z,1026.35
2023-03-28T09:15:37.406Z,1026.35
2023-03-28T09:16:40.652Z,1026.34
2023-03-28T09:17:44.064Z,1026.35
2023-03-28T09:19:18.893Z,1026.36
2023-03-28T09:20:43.104Z,1026.34
2023-03-28T09:21:47.021Z,1026.35
2023-03-28T09:23:40.143Z,1026.36
2023-03-28T09:24:43.118Z,1026.31
2023-03-28T09:25:46.159Z,1026.34
2023-03-28T09:27:23.805Z,1026.33
2023-03-28T09:28:26.732Z,1026.29
2023-03-28T09:29:29.972Z,1026.30
2023-03-28T09:31:05.537Z,1026.30
2023-03-28T09:32:12.056Z,1026.31
2023-03-28T09:33:15.838Z,1026.31
2023-03-28T09:34:51.189Z,1026.28
2023-03-28T09:35:54.688Z,1026.28
2023-03-28T09:37:01.766Z,1026.27
2023-03-28T09:38:36.463Z,1026.22
2023-03-28T09:39:39.630Z,1026.23
2023-03-28T09:40:42.784Z,1026.23
2023-03-28T09:42:18.247Z,1026.22
2023-03-28T09:43:21.343Z,1026.23
2023-03-28T09:44:24.157Z,1026.22
2023-03-28T09:46:17.315Z,1026.20
2023-03-28T09:47:20.782Z,1026.21
2023-03-28T09:48:25.740Z,1026.21
2023-03-28T09:50:18.974Z,1026.20
2023-03-28T09:51:22.060Z,1026.18
2023-03-28T09:52:25.162Z,1026.16
2023-03-28T09:53:59.827Z,1026.13
2023-03-28T09:55:03.009Z,1026.13
2023-03-28T09:56:15.397Z,1026.15
2023-03-28T09:57:50.401Z,1026.18
2023-03-28T09:58:53.631Z,1026.13
2023-03-28T09:59:56.634Z,1026.15
2023-03-28T10:00:23.800Z,1026.15
2023-03-28T10:01:26.786Z,1026.14
2023-03-28T10:02:30.613Z,1026.14
2023-03-28T10:04:06.605Z,1026.12
2023-03-28T10:05:12.089Z,1026.09
2023-03-28T10:06:14.993Z,1026.08
2023-03-28T10:07:49.694Z,1026.07
2023-03-28T10:08:52.758Z,1026.07
2023-03-28T10:09:56.058Z,1026.08
2023-03-28T10:11:30.931Z,1026.10
2023-03-28T10:12:33.888Z,1026.05
2023-03-28T10:13:36.801Z,1026.07
2023-03-28T10:15:11.851Z,1026.06
2023-03-28T10:16:15.298Z,1026.04
2023-03-28T10:17:18.491Z,1026.05
2023-03-28T10:18:55.172Z,1025.98
2023-03-28T10:19:58.034Z,1025.93
2023-03-28T10:21:01.075Z,1025.96
2023-03-28T10:22:36.262Z,1025.89
2023-03-28T10:23:39.184Z,1025.86
2023-03-28T10:24:42.125Z,1025.84
2023-03-28T10:26:16.882Z,1025.85
2023-03-28T10:27:19.726Z,1025.85
2023-03-28T10:28:22.659Z,1025.83
2023-03-28T10:29:57.356Z,1025.80
2023-03-28T10:31:00.998Z,1025.80
2023-03-28T10:32:04.292Z,1025.76
2023-03-28T10:33:39.522Z,1025.77
2023-03-28T10:34:42.549Z,1025.75
2023-03-28T10:35:45.736Z,1025.76
2023-03-28T10:37:20.916Z,1025.70
2023-03-28T10:38:24.210Z,1025.70
2023-03-28T10:39:27.185Z,1025.66
2023-03-28T10:41:02.633Z,1025.68
2023-03-28T10:42:06.154Z,1025.63
2023-03-28T10:43:09.293Z,1025.58
2023-03-28T10:44:43.975Z,1025.58
2023-03-28T10:45:47.246Z,1025.54
2023-03-28T10:46:50.451Z,1025.52
2023-03-28T10:48:25.794Z,1025.56
2023-03-28T10:49:28.800Z,1025.54
2023-03-28T10:50:33.066Z,1025.50
2023-03-28T10:52:09.730Z,1025.44
2023-03-28T10:53:13.010Z,1025.42
2023-03-28T10:54:15.952Z,1025.41
2023-03-28T10:55:51.047Z,1025.43
2023-03-28T10:56:57.287Z,1025.40
2023-03-28T10:58:00.571Z,1025.38
2023-03-28T10:59:35.303Z,1025.32
2023-03-28T11:01:26.624Z,1025.32
2023-03-28T11:02:31.234Z,1025.30
2023-03-28T11:04:07.330Z,1025.27
2023-03-28T11:05:10.389Z,1025.27
2023-03-28T11:06:21.645Z,1025.20
2023-03-28T11:07:56.708Z,1025.20
2023-03-28T11:08:59.693Z,1025.20
2023-03-28T11:10:02.844Z,1025.15
2023-03-28T11:11:37.752Z,1025.18
2023-03-28T11:13:02.752Z,1025.12
2023-03-28T11:14:07.173Z,1025.13
2023-03-28T11:15:41.682Z,1025.11
2023-03-28T11:16:44.959Z,1025.06
2023-03-28T11:17:48.252Z,1025.00
2023-03-28T11:19:23.454Z,1024.99
2023-03-28T11:20:26.291Z,1024.97
2023-03-28T11:21:29.079Z,1025.06
2023-03-28T11:23:17.147Z,1025.01
2023-03-28T11:24:23.664Z,1024.98
2023-03-28T11:25:26.742Z,1024.95
2023-03-28T11:27:20.862Z,1024.89
2023-03-28T11:28:23.839Z,1024.94
2023-03-28T11:29:43.801Z,1024.93
2023-03-28T11:31:19.338Z,1024.89
2023-03-28T11:32:22.995Z,1024.90
2023-03-28T11:33:26.145Z,1024.92
2023-03-28T11:35:00.690Z,1024.89
2023-03-28T11:36:03.927Z,1024.86
2023-03-28T11:37:06.799Z,1024.86
2023-03-28T11:38:41.530Z,1024.77
2023-03-28T11:39:44.614Z,1024.75
2023-03-28T11:40:47.969Z,1024.73
2023-03-28T11:42:23.472Z,1024.68
2023-03-28T11:43:26.521Z,1024.66
2023-03-28T11:44:29.751Z,1024.67
2023-03-28T11:46:04.899Z,1024.67
2023-03-28T11:47:08.141Z,1024.69
2023-03-28T11:48:11.650Z,1024.63
2023-03-28T11:49:46.451Z,1024.56
2023-03-28T11:50:49.284Z,1024.49
2023-03-28T11:51:52.778Z,1024.55
2023-03-28T11:53:27.387Z,1024.58
2023-03-28T11:54:30.530Z,1024.56
2023-03-28T11:55:33.688Z,1024.54
2023-03-28T11:57:09.021Z,1024.54
2023-03-28T11:58:12.422Z,1024.56
2023-03-28T11:59:15.946Z,1024.54
2023-03-28T12:00:47.388Z,1024.47
2023-03-28T12:01:51.389Z,1024.53
2023-03-28T12:02:55.092Z,1024.43
2023-03-28T12:04:31.407Z,1024.43
2023-03-28T12:05:34.482Z,1024.46
2023-03-28T12:06:39.477Z,1024.43
2023-03-28T12:08:32.204Z,1024.36
2023-03-28T12:09:35.154Z,1024.36
2023-03-28T12:10:38.496Z,1024.34
2023-03-28T12:12:13.452Z,1024.24
2023-03-28T12:13:16.802Z,1024.27
2023-03-28T12:14:28.217Z,1024.28
2023-03-28T12:16:03.838Z,1024.27
2023-03-28T12:17:07.745Z,1024.30
2023-03-28T12:18:11.319Z,1024.27
2023-03-28T12:19:47.147Z,1024.25
2023-03-28T12:20:50.518Z,1024.23
2023-03-28T12:21:54.328Z,1024.26
2023-03-28T12:23:29.249Z,1024.19
2023-03-28T12:24:32.287Z,1024.18
2023-03-28T12:25:35.303Z,1024.17
2023-03-28T12:27:10.565Z,1024.19
2023-03-28T12:28:13.798Z,1024.19
2023-03-28T12:29:17.019Z,1024.13
2023-03-28T12:30:52.387Z,1024.12
2023-03-28T12:31:56.528Z,1024.02
2023-03-28T12:32:59.997Z,1024.03
2023-03-28T12:34:35.558Z,1024.02
2023-03-28T12:35:39.112Z,1023.97
2023-03-28T12:36:43.157Z,1023.97
2023-03-28T12:38:18.540Z,1023.96
2023-03-28T12:39:21.848Z,1023.93
2023-03-28T12:40:24.921Z,1023.94
2023-03-28T12:42:00.118Z,1023.87
2023-03-28T12:43:03.412Z,1023.80
2023-03-28T12:44:06.701Z,1023.80
2023-03-28T12:45:45.060Z,1023.80
2023-03-28T12:46:48.640Z,1023.77
2023-03-28T12:47:52.149Z,1023.78
2023-03-28T12:49:27.677Z,1023.75
2023-03-28T12:50:31.223Z,1023.71
2023-03-28T12:51:34.523Z,1023.72
2023-03-28T12:53:09.998Z,1023.70
2023-03-28T12:54:13.460Z,1023.63
2023-03-28T12:55:16.444Z,1023.60
2023-03-28T12:56:51.561Z,1023.57
2023-03-28T12:57:55.289Z,1023.55
2023-03-28T12:58:58.406Z,1023.59
2023-03-28T13:00:23.793Z,1023.54
2023-03-28T13:01:29.013Z,1023.56
2023-03-28T13:02:32.431Z,1023.58
2023-03-28T13:04:07.905Z,1023.57
2023-03-28T13:05:12.966Z,1023.58
2023-03-28T13:06:18.322Z,1023.54
2023-03-28T13:07:53.850Z,1023.53
2023-03-28T13:08:57.191Z,1023.49
2023-03-28T13:10:00.448Z,1023.49
2023-03-28T13:11:35.726Z,1023.50
2023-03-28T13:12:38.919Z,1023.47
2023-03-28T13:13:42.293Z,1023.46
2023-03-28T13:15:17.252Z,1023.52
2023-03-28T13:16:20.447Z,1023.52
2023-03-28T13:17:23.879Z,1023.51
2023-03-28T13:18:58.967Z,1023.52
2023-03-28T13:20:04.958Z,1023.45
2023-03-28T13:21:08.737Z,1023.45
2023-03-28T13:22:44.009Z,1023.48
2023-03-28T13:23:47.395Z,1023.44
2023-03-28T13:24:50.630Z,1023.46
2023-03-28T13:26:27.964Z,1023.36
2023-03-28T13:27:31.217Z,1023.39
2023-03-28T13:28:34.509Z,1023.39
2023-03-28T13:30:09.768Z,1023.35
2023-03-28T13:31:12.801Z,1023.34
2023-03-28T13:32:16.757Z,1023.37
2023-03-28T13:33:55.713Z,1023.30
2023-03-28T13:34:58.635Z,1023.33
2023-03-28T13:36:02.065Z,1023.36
2023-03-28T13:37:37.601Z,1023.33
2023-03-28T13:38:40.823Z,1023.42
2023-03-28T13:39:44.110Z,1023.41
2023-03-28T13:41:19.290Z,1023.36
2023-03-28T13:42:22.409Z,1023.30
2023-03-28T13:43:25.624Z,1023.37
2023-03-28T13:45:02.337Z,1023.29
2023-03-28T13:46:06.171Z,1023.32
2023-03-28T13:47:10.082Z,1023.30
2023-03-28T13:48:59.062Z,1023.22
2023-03-28T13:50:05.410Z,1023.23
2023-03-28T13:51:08.804Z,1023.21
2023-03-28T13:52:43.745Z,1023.21
2023-03-28T13:53:59.685Z,1023.19
2023-03-28T13:55:03.016Z,1023.10
2023-03-28T13:56:38.435Z,1023.13
2023-03-28T13:57:42.096Z,1023.12
2023-03-28T13:58:45.373Z,1023.11
2023-03-28T14:00:23.300Z,1023.03
2023-03-28T14:01:27.089Z,1023.05
2023-03-28T14:02:31.121Z,1023.04
2023-03-28T14:04:07.166Z,1023.02
2023-03-28T14:05:10.525Z,1023.02
2023-03-28T14:06:13.640Z,1022.98
2023-03-28T14:07:49.079Z,1022.95
2023-03-28T14:08:52.244Z,1022.89
2023-03-28T14:09:59.929Z,1022.92
2023-03-28T14:11:34.958Z,1022.85
2023-03-28T14:12:38.534Z,1022.89
2023-03-28T14:13:41.854Z,1022.83
2023-03-28T14:15:16.916Z,1022.75
2023-03-28T14:16:20.496Z,1022.73
2023-03-28T14:17:24.150Z,1022.76
2023-03-28T14:18:59.670Z,1022.72
2023-03-28T14:20:05.655Z,1022.65
2023-03-28T14:21:09.423Z,1022.69
2023-03-28T14:23:01.085Z,1022.58
2023-03-28T14:24:04.720Z,1022.60
2023-03-28T14:25:07.937Z,1022.54
2023-03-28T14:26:43.120Z,1022.52
2023-03-28T14:27:46.078Z,1022.52
2023-03-28T14:28:49.171Z,1022.48
2023-03-28T14:30:24.551Z,1022.46
2023-03-28T14:31:28.080Z,1022.44
2023-03-28T14:32:31.787Z,1022.47
2023-03-28T14:34:33.583Z,1022.38
2023-03-28T14:35:37.071Z,1022.34
2023-03-28T14:36:40.588Z,1022.36
2023-03-28T14:38:15.964Z,1022.35
2023-03-28T14:39:19.729Z,1022.34
2023-03-28T14:40:22.740Z,1022.28
2023-03-28T14:41:58.004Z,1022.29
2023-03-28T14:43:01.468Z,1022.23
2023-03-28T14:44:04.696Z,1022.21
2023-03-28T14:45:39.956Z,1022.17
2023-03-28T14:46:43.823Z,1022.10
2023-03-28T14:47:47.392Z,1022.08
2023-03-28T14:49:23.192Z,1022.05
2023-03-28T14:50:26.458Z,1022.08
2023-03-28T14:51:29.592Z,1022.04
2023-03-28T14:53:04.803Z,1022.00
2023-03-28T14:54:07.772Z,1021.97
2023-03-28T14:55:11.176Z,1021.95
2023-03-28T14:56:49.771Z,1021.96
2023-03-28T14:57:53.000Z,1021.92
2023-03-28T14:58:56.124Z,1021.92
2023-03-28T15:00:24.070Z,1021.85
2023-03-28T15:01:27.135Z,1021.87
2023-03-28T15:07:32.151Z,1021.84
2023-03-28T15:09:07.488Z,1021.80